EETN/TLL METAR and TAF weather

Enter ICAO airport designator
Station Type Date Time Source
EETN METAR 2021/03/02 13:20 UTC NOAA

EETN 021320Z 28014KT CAVOK 06/M01 Q1021 R08/19//95 NOSIG


Station Type Date Time Source
EETN Decoded METAR 2021/03/02 13:20 UTC NOAA

Tallinn, Estonia (EETN) 59-24N 024-49E 34M
Mar 02, 2021 - 08:20 AM EST / 2021.03.02 1320 UTC
Wind: from the W (280 degrees) at 16 MPH (14 KT):0
Visibility: greater than 7 mile(s):0
Temperature: 42 F (6 C)
Dew Point: 30 F (-1 C)
Relative Humidity: 60%
Pressure (altimeter): 30.15 in. Hg (1021 hPa)
ob: EETN 021320Z 28014KT CAVOK 06/M01 Q1021 R08/19//95 NOSIG
cycle: 13

Station Type Date Time Source
EETN TAF 2021/03/02 12:33 UTC NOAA

TAF TAF EETN 021130Z 0212/0312 29013KT CAVOK

Example: see airport list